Time;durP1;ratioP1;P1;durP2;ratioP2;P2;SDS_P1;SDS_P2;PMS_P1;PMS_P2;Temp;Humidity;BMP_temperature;BMP_pressure;BME280_temperature;BME280_humidity;BME280_pressure;Samples;Min_cycle;Max_cycle;Signal;HPM_P1;HPM_P2
2021/09/16 08:05:53;;;;;;;9.43;7.10;;;27.10;77.60;;;;;;2189783;54;20148;-81
2021/09/16 08:08:20;;;;;;;10.52;6.78;;;24.70;99.90;;;;;;2627488;47;20023;-77
2021/09/16 08:10:47;;;;;;;7.57;6.40;;;24.90;99.90;;;;;;2628125;47;20030;-78
2021/09/16 08:13:15;;;;;;;8.27;6.63;;;25.30;99.90;;;;;;2628680;47;20030;-76
2021/09/16 08:15:45;;;;;;;11.20;7.65;;;25.70;99.90;;;;;;2629373;54;20027;-77
2021/09/16 08:18:16;;;;;;;10.95;7.53;;;25.70;99.90;;;;;;2629050;47;20033;-76
2021/09/16 08:20:47;;;;;;;7.90;7.10;;;25.70;99.90;;;;;;2628989;46;20027;-76
2021/09/16 08:23:16;;;;;;;10.35;6.97;;;25.80;99.90;;;;;;2628593;47;20026;-78
2021/09/16 08:25:43;;;;;;;7.32;6.50;;;25.90;99.90;;;;;;2629452;47;20033;-76
2021/09/16 08:28:11;;;;;;;7.85;6.55;;;25.80;99.90;;;;;;2633498;39;20448;-77
2021/09/16 08:30:39;;;;;;;8.77;6.28;;;25.60;99.90;;;;;;2630420;46;20022;-78
2021/09/16 08:33:06;;;;;;;10.52;6.45;;;25.50;99.90;;;;;;2630539;47;20019;-77
2021/09/16 08:35:34;;;;;;;14.88;6.97;;;25.30;99.90;;;;;;2630298;54;20007;-78
2021/09/16 08:38:02;;;;;;;10.27;5.68;;;25.20;99.90;;;;;;2629821;46;20541;-77
2021/09/16 08:40:30;;;;;;;8.85;7.20;;;25.00;99.90;;;;;;2629675;46;20026;-78
2021/09/16 08:42:57;;;;;;;7.95;5.30;;;24.90;99.90;;;;;;2629665;47;20031;-78
2021/09/16 08:45:25;;;;;;;5.85;4.82;;;24.70;99.90;;;;;;2629766;47;20027;-76
2021/09/16 08:47:53;;;;;;;5.25;4.75;;;24.70;99.90;;;;;;2629697;47;20026;-77
2021/09/16 08:50:23;;;;;;;6.40;4.05;;;24.60;99.90;;;;;;2629570;47;20034;-78
2021/09/16 08:52:50;;;;;;;5.43;4.35;;;24.50;99.90;;;;;;2630278;54;20030;-78
2021/09/16 08:55:19;;;;;;;5.60;4.22;;;24.50;99.90;;;;;;2629752;54;20042;-77
2021/09/16 08:57:50;;;;;;;5.45;4.35;;;24.40;99.90;;;;;;2629885;47;20026;-78
2021/09/16 09:00:19;;;;;;;6.72;4.50;;;24.30;99.90;;;;;;2629709;54;20046;-78
2021/09/16 09:02:47;;;;;;;4.88;4.47;;;24.20;99.90;;;;;;2629618;47;20037;-79
2021/09/16 09:05:16;;;;;;;6.25;4.40;;;24.10;99.90;;;;;;2629635;54;20041;-77
2021/09/16 09:07:49;;;;;;;4.72;4.32;;;24.00;99.90;;;;;;2628800;47;20027;-77
2021/09/16 09:10:39;;;;;;;5.57;4.03;;;23.80;99.90;;;;;;2628955;47;20047;-78
2021/09/16 09:13:09;;;;;;;6.75;4.45;;;23.70;99.90;;;;;;2629348;54;20058;-78
2021/09/16 09:15:38;;;;;;;5.13;4.18;;;23.60;99.90;;;;;;2630382;39;20090;-77
2021/09/16 09:18:07;;;;;;;5.80;3.88;;;23.50;99.90;;;;;;2627980;47;20027;-77
2021/09/16 09:21:00;;;;;;;5.53;4.13;;;23.50;99.90;;;;;;2627887;54;20037;-78
2021/09/16 09:23:35;;;;;;;5.43;4.30;;;23.40;99.90;;;;;;2628390;54;20087;-78
2021/09/16 09:26:19;;;;;;;5.20;4.65;;;23.50;99.90;;;;;;2628468;54;20059;-78
2021/09/16 09:28:46;;;;;;;5.30;4.80;;;23.50;99.90;;;;;;2628953;39;20438;-79
2021/09/16 09:31:20;;;;;;;4.93;4.53;;;23.50;99.90;;;;;;2628046;54;20030;-77
2021/09/16 09:33:48;;;;;;;5.55;5.05;;;23.40;99.90;;;;;;2628476;54;20062;-77
2021/09/16 09:36:21;;;;;;;6.82;4.95;;;23.40;99.90;;;;;;2629150;47;20038;-78
2021/09/16 09:38:59;;;;;;;4.97;4.50;;;23.40;99.90;;;;;;2628871;47;20041;-77
2021/09/16 09:41:28;;;;;;;7.20;4.97;;;23.50;99.90;;;;;;2628799;54;20545;-79
2021/09/16 09:44:04;;;;;;;5.82;5.32;;;23.50;99.90;;;;;;2629011;54;20035;-78
2021/09/16 09:46:40;;;;;;;12.90;6.20;;;23.50;99.90;;;;;;2629204;54;20030;-79
2021/09/16 09:49:09;;;;;;;16.50;6.40;;;23.60;99.90;;;;;;2629294;54;20022;-77
2021/09/16 09:51:44;;;;;;;6.82;6.18;;;23.60;99.90;;;;;;2629048;54;20033;-78
2021/09/16 09:54:16;;;;;;;13.50;6.73;;;23.60;99.90;;;;;;2629013;47;20065;-77
2021/09/16 09:57:13;;;;;;;6.47;5.80;;;23.50;99.90;;;;;;2629405;54;20272;-78
2021/09/16 10:00:10;;;;;;;6.80;5.82;;;23.50;99.90;;;;;;2630285;54;20030;-76
2021/09/16 10:02:45;;;;;;;6.43;5.57;;;23.50;99.90;;;;;;2628922;54;20026;-79
2021/09/16 10:05:29;;;;;;;6.45;5.85;;;23.40;99.90;;;;;;2629728;39;20410;-78
2021/09/16 10:20:17;;;;;;;;;;;23.70;99.90;;;;;;2629970;54;20042;-77
2021/09/16 10:22:49;;;;;;;8.35;5.53;;;23.80;99.90;;;;;;2631078;39;20337;-77
2021/09/16 10:25:22;;;;;;;6.80;5.25;;;23.90;99.90;;;;;;2629924;47;20027;-76
2021/09/16 10:27:56;;;;;;;6.95;5.20;;;24.00;99.90;;;;;;2630116;54;20032;-77
2021/09/16 10:30:23;;;;;;;5.70;5.20;;;24.00;99.90;;;;;;2629904;54;20556;-79
2021/09/16 10:33:16;;;;;;;8.65;5.65;;;24.00;99.90;;;;;;2629833;54;20023;-77
2021/09/16 10:35:59;;;;;;;5.68;5.18;;;23.90;99.90;;;;;;2630115;46;20054;-79
2021/09/16 10:38:45;;;;;;;6.65;5.45;;;23.60;99.90;;;;;;2630154;54;20121;-79
2021/09/16 10:41:28;;;;;;;8.77;6.38;;;23.40;99.90;;;;;;2630585;54;20576;-76
2021/09/16 10:43:59;;;;;;;8.10;6.78;;;23.20;99.90;;;;;;2630985;54;20036;-77
2021/09/16 10:46:43;;;;;;;7.68;6.97;;;23.00;99.90;;;;;;2629839;47;20552;-78
2021/09/16 10:49:20;;;;;;;6.88;6.18;;;22.90;99.90;;;;;;2629481;54;20065;-76
2021/09/16 10:51:55;;;;;;;7.63;6.95;;;22.70;99.90;;;;;;2629960;54;20051;-77
2021/09/16 10:54:26;;;;;;;7.90;7.10;;;22.60;99.90;;;;;;2629861;47;20042;-78
2021/09/16 10:57:05;;;;;;;7.75;6.97;;;22.60;99.90;;;;;;2629474;54;20041;-78
2021/09/16 10:59:47;;;;;;;7.20;6.45;;;22.60;99.90;;;;;;2629792;39;20426;-76
2021/09/16 11:02:46;;;;;;;9.32;7.25;;;22.60;99.90;;;;;;2628661;54;20060;-79
2021/09/16 11:05:24;;;;;;;8.57;6.90;;;22.50;99.90;;;;;;2629178;54;20038;-78
2021/09/16 11:07:52;;;;;;;10.75;6.82;;;22.50;99.90;;;;;;2629305;54;20026;-78
2021/09/16 11:10:20;;;;;;;7.38;6.35;;;22.40;99.90;;;;;;2629272;54;20014;-76
2021/09/16 11:12:51;;;;;;;7.10;6.40;;;22.40;99.90;;;;;;2628536;39;20425;-77
2021/09/16 11:15:29;;;;;;;8.45;6.95;;;22.50;99.90;;;;;;2628233;54;20027;-77
2021/09/16 11:18:09;;;;;;;8.32;6.55;;;22.50;99.90;;;;;;2628880;54;20051;-79
2021/09/16 11:20:37;;;;;;;9.10;7.15;;;22.40;99.90;;;;;;2629184;54;20023;-79
2021/09/16 11:23:14;;;;;;;7.60;6.80;;;22.40;99.90;;;;;;2629033;54;20157;-77
2021/09/16 11:25:50;;;;;;;11.13;7.70;;;22.40;99.90;;;;;;2628538;54;20038;-78
2021/09/16 11:28:27;;;;;;;7.45;6.75;;;22.40;99.90;;;;;;2628329;54;20026;-77
2021/09/16 11:31:03;;;;;;;8.95;8.05;;;22.40;99.90;;;;;;2629071;54;20034;-77
2021/09/16 11:33:39;;;;;;;13.43;8.65;;;22.30;99.90;;;;;;2629269;54;20010;-77
2021/09/16 11:36:16;;;;;;;;;;;22.30;99.90;;;;;;2630160;39;20417;-79
2021/09/16 11:39:12;;;;;;;9.77;8.88;;;22.20;99.90;;;;;;2627779;54;20428;-77
2021/09/16 11:41:48;;;;;;;10.23;9.17;;;22.10;99.90;;;;;;2629633;54;20057;-76
2021/09/16 11:44:24;;;;;;;10.50;8.60;;;22.20;99.90;;;;;;2631153;46;20351;-77
2021/09/16 11:47:00;;;;;;;10.57;9.45;;;22.10;99.90;;;;;;2630974;54;20026;-79
2021/09/16 11:49:42;;;;;;;11.07;9.50;;;22.20;99.90;;;;;;2629525;54;20031;-78
2021/09/16 11:52:21;;;;;;;12.40;9.27;;;22.20;99.90;;;;;;2628659;54;20089;-76
2021/09/16 11:55:10;;;;;;;10.52;9.45;;;22.20;99.90;;;;;;2628175;54;20121;-77
2021/09/16 11:57:57;;;;;;;10.18;8.70;;;22.30;99.90;;;;;;2628188;54;20026;-77
2021/09/16 12:01:17;;;;;;;10.60;8.48;;;22.30;99.90;;;;;;2630694;39;20499;-79
2021/09/16 12:03:57;;;;;;;9.02;7.50;;;22.40;99.90;;;;;;2629083;54;20030;-78
2021/09/16 12:06:36;;;;;;;8.65;7.82;;;22.50;99.90;;;;;;2627414;54;20037;-79
2021/09/16 12:09:15;;;;;;;8.80;7.80;;;22.60;99.90;;;;;;2626766;54;20545;-78
2021/09/16 12:11:50;;;;;;;10.35;7.40;;;22.60;99.90;;;;;;2627669;54;20034;-77
2021/09/16 12:14:26;;;;;;;7.65;6.95;;;22.70;99.90;;;;;;2627292;54;20533;-79
2021/09/16 12:17:03;;;;;;;9.93;7.28;;;22.70;99.90;;;;;;2626817;54;20041;-78
2021/09/16 12:19:42;;;;;;;7.07;6.38;;;22.80;99.90;;;;;;2627580;54;20031;-78
2021/09/16 12:22:18;;;;;;;7.78;7.00;;;22.80;99.90;;;;;;2627305;47;20030;-76
2021/09/16 12:24:54;;;;;;;8.32;7.35;;;22.90;99.90;;;;;;2627000;47;20034;-78
2021/09/16 12:27:30;;;;;;;8.95;7.63;;;23.00;99.90;;;;;;2627853;54;20074;-78
2021/09/16 12:30:19;;;;;;;8.20;7.40;;;23.00;99.90;;;;;;2628259;46;20034;-79
2021/09/16 12:32:54;;;;;;;8.88;7.97;;;23.10;99.90;;;;;;2628760;39;20406;-77
2021/09/16 12:35:30;;;;;;;;;;;23.10;99.90;;;;;;2628285;54;20038;-77
2021/09/16 12:38:06;;;;;;;8.77;7.77;;;23.20;99.90;;;;;;2628041;54;20472;-77
2021/09/16 12:40:42;;;;;;;10.13;7.68;;;23.20;99.90;;;;;;2628682;39;20424;-77
2021/09/16 12:43:18;;;;;;;10.85;8.57;;;23.20;99.90;;;;;;2628270;54;20527;-79
2021/09/16 12:45:54;;;;;;;10.73;9.13;;;23.30;99.90;;;;;;2627594;54;20038;-78
2021/09/16 12:48:30;;;;;;;10.82;8.55;;;23.40;99.90;;;;;;2628283;54;20026;-77
2021/09/16 12:51:08;;;;;;;9.68;8.68;;;23.40;99.90;;;;;;2628040;54;20038;-78
2021/09/16 12:53:44;;;;;;;8.95;7.18;;;23.40;99.90;;;;;;2628544;54;20030;-78
2021/09/16 12:56:20;;;;;;;9.00;8.18;;;23.50;99.90;;;;;;2628555;54;20524;-78
2021/09/16 12:58:56;;;;;;;13.57;8.43;;;23.40;99.90;;;;;;2628276;39;20482;-78
2021/09/16 13:01:33;;;;;;;10.55;8.55;;;23.40;99.90;;;;;;2627855;54;20537;-78
2021/09/16 13:04:09;;;;;;;9.88;7.72;;;23.30;99.90;;;;;;2627736;54;20030;-78
2021/09/16 13:06:45;;;;;;;9.32;8.40;;;23.20;99.90;;;;;;2628366;54;20527;-78
2021/09/16 13:09:31;;;;;;;9.35;8.20;;;23.20;99.90;;;;;;2628714;54;20031;-77
2021/09/16 13:12:11;;;;;;;12.48;8.90;;;23.10;99.90;;;;;;2628182;54;20033;-77
2021/09/16 13:14:47;;;;;;;9.73;8.73;;;23.00;99.90;;;;;;2628446;54;20138;-78
2021/09/16 13:17:23;;;;;;;10.15;8.50;;;22.90;99.90;;;;;;2628387;54;20049;-78
2021/09/16 13:19:59;;;;;;;11.20;8.90;;;22.90;99.90;;;;;;2628061;54;20034;-78
2021/09/16 13:22:37;;;;;;;11.18;9.95;;;22.80;99.90;;;;;;2628441;46;20031;-77
2021/09/16 13:25:12;;;;;;;16.88;8.95;;;22.80;99.90;;;;;;2628484;54;20038;-78
2021/09/16 13:27:48;;;;;;;10.88;9.60;;;22.90;99.90;;;;;;2628100;54;20061;-76
2021/09/16 13:30:24;;;;;;;10.68;8.50;;;22.80;99.90;;;;;;2628243;54;20030;-79
2021/09/16 13:33:00;;;;;;;9.63;8.52;;;22.90;99.90;;;;;;2628602;54;20529;-76
2021/09/16 13:35:38;;;;;;;9.07;8.18;;;22.90;99.90;;;;;;2628642;54;20082;-78
2021/09/16 13:38:13;;;;;;;11.13;9.25;;;23.00;99.90;;;;;;2628326;54;20030;-77
2021/09/16 13:40:49;;;;;;;9.98;8.93;;;23.10;99.90;;;;;;2628986;47;20034;-79
2021/09/16 13:43:17;;;;;;;10.40;8.18;;;23.10;99.90;;;;;;2629124;54;20035;-78
2021/09/16 13:45:52;;;;;;;11.38;9.13;;;23.20;99.90;;;;;;2628533;54;20053;-77
2021/09/16 13:48:28;;;;;;;8.93;8.02;;;23.20;99.90;;;;;;2629729;54;20026;-78
2021/09/16 13:50:57;;;;;;;10.70;8.57;;;23.30;99.90;;;;;;2629063;54;20023;-78
2021/09/16 13:53:33;;;;;;;13.05;8.75;;;23.40;99.90;;;;;;2629309;54;20026;-77
2021/09/16 13:56:09;;;;;;;9.73;7.85;;;23.40;99.90;;;;;;2630242;54;20033;-78
2021/09/16 13:58:45;;;;;;;8.90;8.05;;;23.50;99.90;;;;;;2630441;54;20030;-77
2021/09/16 14:01:20;;;;;;;9.27;7.65;;;23.50;99.90;;;;;;2631033;39;20562;-78
2021/09/16 14:03:56;;;;;;;8.70;7.50;;;23.50;99.90;;;;;;2630214;54;20533;-79
2021/09/16 14:06:33;;;;;;;8.85;7.97;;;23.50;99.90;;;;;;2629254;46;20031;-78
2021/09/16 14:09:09;;;;;;;8.30;7.50;;;23.50;99.90;;;;;;2628623;46;20034;-78
2021/09/16 14:11:44;;;;;;;8.65;7.75;;;23.50;99.90;;;;;;2629008;46;20030;-79
2021/09/16 14:14:20;;;;;;;11.48;7.53;;;23.50;99.90;;;;;;2628444;54;20034;-76
2021/09/16 14:16:56;;;;;;;9.82;7.47;;;23.40;99.90;;;;;;2627632;54;20027;-78
2021/09/16 14:19:32;;;;;;;8.73;7.43;;;23.30;99.90;;;;;;2628933;39;20424;-77
2021/09/16 14:22:08;;;;;;;10.68;7.75;;;23.20;99.90;;;;;;2627953;54;20632;-79
2021/09/16 14:24:45;;;;;;;10.90;7.72;;;23.10;99.90;;;;;;2628079;54;20030;-78
2021/09/16 14:27:22;;;;;;;8.45;7.57;;;23.10;99.90;;;;;;2628222;54;20050;-77
2021/09/16 14:29:58;;;;;;;8.13;7.32;;;23.00;99.90;;;;;;2627375;54;20037;-77
2021/09/16 14:32:33;;;;;;;7.93;7.18;;;23.00;99.90;;;;;;2628250;54;20027;-77
2021/09/16 14:35:13;;;;;;;10.25;7.95;;;22.90;99.90;;;;;;2629264;54;20061;-78
2021/09/16 14:37:48;;;;;;;9.90;8.90;;;22.90;99.90;;;;;;2631056;54;20014;-79
2021/09/16 14:40:25;;;;;;;11.18;9.70;;;22.80;99.90;;;;;;2623109;54;20034;31
2021/09/16 14:43:01;;;;;;;12.48;11.38;;;22.70;99.90;;;;;;2631454;54;20015;-78
2021/09/16 14:45:36;;;;;;;13.40;10.55;;;22.50;99.90;;;;;;2631262;54;20026;-76
2021/09/16 14:48:14;;;;;;;13.25;11.95;;;22.50;99.90;;;;;;2630444;31;22334;31
2021/09/16 14:50:53;;;;;;;13.68;12.35;;;22.40;99.90;;;;;;2631254;54;20021;-77
2021/09/16 14:53:28;;;;;;;12.70;11.43;;;22.40;99.90;;;;;;2630906;54;20030;-78
2021/09/16 14:56:04;;;;;;;15.00;11.65;;;22.30;99.90;;;;;;2632054;39;20418;-78
2021/09/16 14:58:40;;;;;;;12.63;11.30;;;22.30;99.90;;;;;;2631198;31;20541;-77
2021/09/16 15:01:16;;;;;;;13.40;12.18;;;22.30;99.90;;;;;;2630529;54;20058;-78
2021/09/16 15:03:53;;;;;;;12.52;11.32;;;22.20;99.90;;;;;;2630073;54;20029;-79
2021/09/16 15:06:29;;;;;;;14.30;12.90;;;22.10;99.90;;;;;;2630315;54;20031;-78
2021/09/16 15:09:05;;;;;;;14.98;13.57;;;22.10;99.90;;;;;;2630331;46;20034;-79
2021/09/16 15:11:43;;;;;;;13.63;12.35;;;22.00;99.90;;;;;;2629951;54;20014;-77
2021/09/16 15:14:19;;;;;;;18.25;13.15;;;22.00;99.90;;;;;;2629856;54;20029;-80
2021/09/16 15:16:55;;;;;;;15.77;14.07;;;22.00;99.90;;;;;;2630449;54;20529;-79
2021/09/16 15:19:31;;;;;;;13.52;12.20;;;21.90;99.90;;;;;;2629778;54;20035;-80
2021/09/16 15:22:07;;;;;;;13.20;11.90;;;22.00;99.90;;;;;;2630136;46;20026;-79
2021/09/16 15:24:43;;;;;;;12.40;10.25;;;21.90;99.90;;;;;;2629769;54;20079;-78
2021/09/16 15:27:19;;;;;;;14.82;11.70;;;21.90;99.90;;;;;;2629704;54;20030;-78
2021/09/16 15:29:55;;;;;;;12.00;10.63;;;21.90;99.90;;;;;;2630731;39;20441;-77
2021/09/16 15:32:31;;;;;;;12.18;10.98;;;21.90;99.90;;;;;;2629161;54;20027;-77
2021/09/16 15:35:08;;;;;;;14.57;12.38;;;22.00;99.90;;;;;;2627672;39;20393;-77
2021/09/16 15:37:44;;;;;;;12.90;11.60;;;21.90;99.90;;;;;;2624826;54;20065;-78
2021/09/16 15:40:20;;;;;;;13.43;11.52;;;21.90;99.90;;;;;;2625514;54;20122;-78
2021/09/16 15:42:59;;;;;;;11.65;10.45;;;22.00;99.90;;;;;;2625650;54;20041;-78
2021/09/16 15:45:35;;;;;;;15.35;10.25;;;21.90;99.90;;;;;;2627450;39;20472;-77
2021/09/16 15:48:11;;;;;;;11.13;10.02;;;22.00;99.90;;;;;;2627982;54;20027;-78
2021/09/16 15:50:47;;;;;;;11.60;10.40;;;21.90;99.90;;;;;;2632642;39;20437;-77
2021/09/16 15:53:23;;;;;;;13.50;11.18;;;21.90;99.90;;;;;;2628110;39;20423;-76
2021/09/16 15:56:02;;;;;;;11.05;10.05;;;21.90;99.90;;;;;;2627751;54;20034;-78
2021/09/16 15:58:38;;;;;;;11.18;9.95;;;21.90;99.90;;;;;;2629092;54;20031;-77
2021/09/16 16:01:14;;;;;;;10.95;9.57;;;21.90;99.90;;;;;;2628546;54;20033;-77
2021/09/16 16:03:51;;;;;;;13.13;10.25;;;21.80;99.90;;;;;;2629209;54;20030;-77
2021/09/16 16:06:27;;;;;;;9.77;8.77;;;21.80;99.90;;;;;;2629460;54;20502;-78
2021/09/16 16:09:04;;;;;;;11.05;8.63;;;21.80;99.90;;;;;;2628248;46;20026;-79
2021/09/16 16:11:40;;;;;;;10.25;9.02;;;21.80;99.90;;;;;;2628996;54;20090;-79
2021/09/16 16:14:16;;;;;;;10.30;8.93;;;21.70;99.90;;;;;;2629714;54;20552;-78
2021/09/16 16:16:57;;;;;;;9.52;8.63;;;21.80;99.90;;;;;;2629911;54;20042;-77
2021/09/16 16:19:33;;;;;;;10.23;8.98;;;21.80;99.90;;;;;;2627175;46;20119;-80
2021/09/16 16:22:09;;;;;;;13.60;9.23;;;21.70;99.90;;;;;;2628060;54;20030;-78
2021/09/16 16:24:45;;;;;;;13.88;8.70;;;21.70;99.90;;;;;;2627909;54;20031;-77
2021/09/16 16:27:21;;;;;;;14.07;9.10;;;21.70;99.90;;;;;;2628832;54;20050;-78
2021/09/16 16:29:57;;;;;;;20.38;9.13;;;21.60;99.90;;;;;;2627591;54;20030;-78
2021/09/16 16:32:54;;;;;;;8.57;7.68;;;21.60;99.90;;;;;;2628598;46;20038;-78
2021/09/16 16:35:30;;;;;;;8.32;7.50;;;21.60;99.90;;;;;;2626907;54;20034;-78
2021/09/16 16:38:06;;;;;;;9.05;7.20;;;21.50;99.90;;;;;;2626708;46;20030;-77
2021/09/16 16:40:34;;;;;;;10.18;7.07;;;21.40;99.90;;;;;;2627243;54;20051;-77
2021/09/16 16:43:10;;;;;;;13.40;7.72;;;21.40;99.90;;;;;;2629050;46;20037;-78
2021/09/16 16:45:48;;;;;;;9.13;6.63;;;21.40;99.90;;;;;;2627099;54;20038;-77
2021/09/16 16:51:26;;;;;;;8.13;7.32;;;21.30;99.90;;;;;;2629233;54;20590;-79
2021/09/16 16:54:03;;;;;;;11.43;7.75;;;21.20;99.90;;;;;;2627917;54;20030;-78
2021/09/16 16:56:39;;;;;;;11.18;7.72;;;21.20;99.90;;;;;;2626593;54;20055;-76
2021/09/16 16:59:17;;;;;;;10.55;8.02;;;21.10;99.90;;;;;;2626766;54;20037;-78
2021/09/16 17:01:53;;;;;;;10.25;7.82;;;21.10;99.90;;;;;;2628562;54;20014;-78
2021/09/16 17:04:30;;;;;;;14.70;7.45;;;21.00;99.90;;;;;;2629428;54;20030;-77
2021/09/16 17:07:06;;;;;;;12.27;8.57;;;21.00;99.90;;;;;;2628624;54;20146;-76
2021/09/16 17:09:42;;;;;;;14.48;7.72;;;20.90;99.90;;;;;;2628116;54;20026;-79
2021/09/16 17:12:17;;;;;;;;;;;20.90;99.90;;;;;;2630037;54;20026;-77
2021/09/16 17:14:54;;;;;;;10.77;7.57;;;20.90;99.90;;;;;;2628843;54;19998;-78
2021/09/16 17:17:31;;;;;;;11.32;8.25;;;20.80;99.90;;;;;;2626911;54;20034;-77
2021/09/16 17:20:09;;;;;;;10.65;7.45;;;20.80;99.90;;;;;;2627006;54;20034;-78
2021/09/16 17:22:45;;;;;;;10.35;7.68;;;20.70;99.90;;;;;;2628379;54;20030;-78
2021/09/16 17:25:24;;;;;;;11.00;7.40;;;20.80;99.90;;;;;;2629143;54;20077;-78
2021/09/16 17:28:00;;;;;;;8.48;7.10;;;20.70;99.90;;;;;;2630183;54;20015;-77
2021/09/16 17:30:36;;;;;;;8.77;6.80;;;20.60;99.90;;;;;;2629959;54;20026;-78
2021/09/16 17:33:11;;;;;;;;;;;20.60;99.90;;;;;;2630175;54;20030;-79
2021/09/16 17:35:47;;;;;;;9.32;6.35;;;20.60;99.90;;;;;;2630301;54;19950;-80
2021/09/16 17:38:23;;;;;;;;;;;20.60;99.90;;;;;;2630538;54;20520;-78
2021/09/16 17:40:59;;;;;;;12.63;7.63;;;20.50;99.90;;;;;;2630371;54;19943;-77
2021/09/16 17:43:34;;;;;;;;;;;20.40;99.90;;;;;;2630630;54;20031;-78
2021/09/16 17:46:02;;;;;;;7.97;6.07;;;20.30;99.90;;;;;;2630097;47;19939;-78
2021/09/16 17:48:38;;;;;;;;;;;20.30;99.90;;;;;;2629680;54;20061;-77
2021/09/16 17:51:15;;;;;;;;;;;20.20;99.90;;;;;;2630342;54;20022;-79
2021/09/16 17:53:53;;;;;;;6.40;5.53;;;20.20;99.90;;;;;;2624004;54;19955;31
2021/09/16 17:56:30;;;;;;;6.97;5.85;;;20.20;99.90;;;;;;2629071;54;20039;-79
2021/09/16 17:59:07;;;;;;;8.48;5.40;;;20.20;99.90;;;;;;2618806;54;20031;31
2021/09/16 18:01:44;;;;;;;6.15;5.55;;;20.20;99.90;;;;;;2630666;54;20015;-77
2021/09/16 18:04:20;;;;;;;5.90;5.22;;;20.20;99.90;;;;;;2629898;54;20612;-78
2021/09/16 18:06:57;;;;;;;;;;;20.10;99.90;;;;;;2630129;54;20042;-78
2021/09/16 18:09:33;;;;;;;9.38;4.88;;;20.10;99.90;;;;;;2630264;47;19938;-78
2021/09/16 18:12:09;;;;;;;6.82;5.43;;;20.10;99.90;;;;;;2630352;54;20019;-78
2021/09/16 18:14:46;;;;;;;10.25;5.50;;;20.10;99.90;;;;;;2629990;54;20526;-77
2021/09/16 18:17:23;;;;;;;6.20;4.70;;;20.00;99.90;;;;;;2630295;54;20684;-78
2021/09/16 18:20:01;;;;;;;9.57;5.40;;;20.00;99.90;;;;;;2630447;54;20035;-79
2021/09/16 18:22:41;;;;;;;7.00;5.07;;;20.00;99.90;;;;;;2623930;47;20027;31
2021/09/16 18:25:18;;;;;;;6.63;5.43;;;19.90;99.90;;;;;;2630018;54;20592;-78
2021/09/16 18:27:58;;;;;;;8.35;5.35;;;19.90;99.90;;;;;;2619018;54;20027;-74
2021/09/16 18:30:35;;;;;;;7.57;5.65;;;19.80;99.90;;;;;;2624621;54;20022;-76
2021/09/16 18:33:15;;;;;;;8.10;5.55;;;19.80;99.90;;;;;;2618847;54;20038;-78
2021/09/16 18:35:52;;;;;;;8.20;6.00;;;19.80;99.90;;;;;;2630705;54;20027;-76
2021/09/16 18:38:39;;;;;;;7.32;5.80;;;19.80;99.90;;;;;;2630275;54;20634;-77
2021/09/16 18:41:06;;;;;;;6.30;5.70;;;19.70;99.90;;;;;;2629656;54;20549;-78
2021/09/16 18:43:33;;;;;;;6.78;5.32;;;19.70;99.90;;;;;;2629505;54;20061;-78
2021/09/16 18:46:02;;;;;;;7.97;5.10;;;19.60;99.90;;;;;;2630934;47;20026;-77
2021/09/16 18:48:31;;;;;;;6.93;4.35;;;19.60;99.90;;;;;;2631195;54;20011;-77
2021/09/16 18:51:02;;;;;;;6.75;4.80;;;19.60;99.90;;;;;;2607093;47;20896;31
2021/09/16 18:53:33;;;;;;;8.70;4.95;;;19.60;99.90;;;;;;2610458;46;20051;31
2021/09/16 18:56:03;;;;;;;5.60;4.65;;;19.50;99.90;;;;;;2589278;47;21390;31
2021/09/16 18:58:32;;;;;;;9.30;4.63;;;19.50;99.90;;;;;;2607144;54;21082;31
2021/09/16 19:01:03;;;;;;;4.80;4.30;;;19.50;99.90;;;;;;2622882;54;20086;-75
2021/09/16 19:03:32;;;;;;;5.03;4.25;;;19.40;99.90;;;;;;2613153;54;20014;-78
2021/09/16 19:06:04;;;;;;;6.53;4.85;;;19.40;99.90;;;;;;2609695;54;20018;-78
2021/09/16 19:08:50;;;;;;;5.40;3.65;;;19.40;99.90;;;;;;2619640;54;20110;-79
2021/09/16 19:11:22;;;;;;;5.85;3.85;;;19.40;99.90;;;;;;2602974;54;20014;31
2021/09/16 19:13:53;;;;;;;5.88;4.07;;;19.40;99.90;;;;;;2612700;54;20876;31
2021/09/16 19:16:22;;;;;;;5.00;3.90;;;19.30;99.90;;;;;;2616977;54;20018;-78
2021/09/16 19:18:52;;;;;;;8.57;4.68;;;19.30;99.90;;;;;;2617600;54;20018;31
2021/09/16 19:21:21;;;;;;;6.95;3.75;;;19.20;99.90;;;;;;2614466;47;20022;-81
2021/09/16 19:23:52;;;;;;;5.70;4.05;;;19.20;99.90;;;;;;2623245;46;20031;-78
2021/09/16 19:26:24;;;;;;;8.02;4.30;;;19.20;99.90;;;;;;2614375;54;20021;31
2021/09/16 19:29:01;;;;;;;5.38;4.20;;;19.10;99.90;;;;;;2605529;54;20091;-77
2021/09/16 19:31:32;;;;;;;6.10;4.10;;;19.10;99.90;;;;;;2630407;47;20031;-78
2021/09/16 19:34:03;;;;;;;5.15;3.72;;;19.00;99.90;;;;;;2630350;54;20040;-77
2021/09/16 19:36:33;;;;;;;6.45;4.47;;;19.00;99.90;;;;;;2629914;54;20568;-78
2021/09/16 19:39:03;;;;;;;5.90;4.32;;;19.00;99.90;;;;;;2628720;47;20066;-77
2021/09/16 19:41:31;;;;;;;5.78;4.05;;;19.00;99.90;;;;;;2628376;54;20545;-77
2021/09/16 19:44:00;;;;;;;5.13;4.47;;;18.90;99.90;;;;;;2628970;54;20015;-78
2021/09/16 19:46:30;;;;;;;4.82;4.10;;;18.90;99.90;;;;;;2628875;54;20641;-79
2021/09/16 19:48:58;;;;;;;6.60;4.70;;;18.90;99.90;;;;;;2628595;54;20038;-79
2021/09/16 19:51:26;;;;;;;6.15;4.63;;;18.80;99.90;;;;;;2629103;54;20082;-80
2021/09/16 19:53:55;;;;;;;7.50;5.40;;;18.80;99.90;;;;;;2628892;47;20046;-80
2021/09/16 19:56:24;;;;;;;8.55;5.20;;;18.80;99.90;;;;;;2629237;54;20055;-78
2021/09/16 19:58:53;;;;;;;6.20;4.82;;;18.80;99.90;;;;;;2629108;54;20015;-79
2021/09/16 20:01:21;;;;;;;7.80;5.30;;;18.70;99.90;;;;;;2630045;47;20075;-78
2021/09/16 20:03:50;;;;;;;5.65;5.05;;;18.70;99.90;;;;;;2630156;46;20082;-77
2021/09/16 20:06:19;;;;;;;5.25;4.75;;;18.70;99.90;;;;;;2629005;54;20224;-77
2021/09/16 20:08:48;;;;;;;6.57;5.53;;;18.70;99.90;;;;;;2629198;47;20034;-78
2021/09/16 20:11:17;;;;;;;9.18;5.53;;;18.70;99.90;;;;;;2621469;47;20045;-76
2021/09/16 20:13:58;;;;;;;5.70;5.07;;;18.70;99.90;;;;;;2631020;54;20041;-75
2021/09/16 20:16:26;;;;;;;7.57;6.05;;;18.70;99.90;;;;;;2630529;54;20031;-76
2021/09/16 20:18:55;;;;;;;7.40;6.15;;;18.60;99.90;;;;;;2630031;47;20034;-78
2021/09/16 20:21:23;;;;;;;7.32;6.47;;;18.70;99.90;;;;;;2630631;54;20041;-76
2021/09/16 20:23:54;;;;;;;7.03;6.40;;;18.60;99.90;;;;;;2625296;47;20026;-78
2021/09/16 20:26:22;;;;;;;7.78;6.18;;;18.60;99.90;;;;;;2631043;54;20045;-77
2021/09/16 20:28:50;;;;;;;8.45;7.10;;;18.60;99.90;;;;;;2630417;46;20038;-79
2021/09/16 20:31:19;;;;;;;8.63;6.38;;;18.60;99.90;;;;;;2619073;54;20022;-78
2021/09/16 20:33:48;;;;;;;12.52;7.72;;;18.60;99.90;;;;;;2631414;54;20011;-77
2021/09/16 20:36:17;;;;;;;6.72;6.07;;;18.60;99.90;;;;;;2631040;54;20015;-79
2021/09/16 20:38:51;;;;;;;7.78;6.85;;;18.60;99.90;;;;;;2616702;54;20015;-78
2021/09/16 20:41:19;;;;;;;7.65;6.72;;;18.60;99.90;;;;;;2631155;54;20026;-76
2021/09/16 20:43:48;;;;;;;8.80;7.28;;;18.60;99.90;;;;;;2614886;54;20058;31
2021/09/16 20:46:16;;;;;;;10.40;8.55;;;18.60;99.90;;;;;;2619227;54;20023;-77
2021/09/16 20:48:45;;;;;;;12.15;8.30;;;18.60;99.90;;;;;;2630602;54;20493;-78
2021/09/16 20:51:13;;;;;;;10.85;7.85;;;18.50;99.90;;;;;;2630643;47;20043;-78
2021/09/16 20:53:42;;;;;;;8.45;6.50;;;18.50;99.90;;;;;;2630753;54;20010;-77
2021/09/16 20:56:11;;;;;;;10.48;7.95;;;18.50;99.90;;;;;;2627373;54;20081;-79
2021/09/16 20:58:42;;;;;;;10.27;8.88;;;18.50;99.90;;;;;;2627346;54;20084;31
2021/09/16 21:01:13;;;;;;;9.65;8.65;;;18.50;99.90;;;;;;2618090;46;20050;31
2021/09/16 21:03:42;;;;;;;13.75;9.30;;;18.40;99.90;;;;;;2630929;47;20015;-77
2021/09/16 21:06:11;;;;;;;10.55;9.43;;;18.50;99.90;;;;;;2631162;39;20410;-77
2021/09/16 21:08:39;;;;;;;10.65;8.75;;;18.40;99.90;;;;;;2630836;47;20022;-78
2021/09/16 21:11:07;;;;;;;10.45;9.32;;;18.40;99.90;;;;;;2631195;47;20015;-78
2021/09/16 21:13:39;;;;;;;11.90;10.55;;;18.40;99.90;;;;;;2619657;47;20771;31
2021/09/16 21:16:07;;;;;;;12.52;9.38;;;18.40;99.90;;;;;;2631004;47;20018;-77
2021/09/16 21:18:35;;;;;;;12.45;9.43;;;18.30;99.90;;;;;;2630721;47;20030;-77
2021/09/16 21:21:04;;;;;;;10.52;9.43;;;18.30;99.90;;;;;;2629257;54;20046;31
2021/09/16 21:23:32;;;;;;;12.45;8.48;;;18.30;99.90;;;;;;2631000;54;19947;-78
2021/09/16 21:26:00;;;;;;;9.52;8.18;;;18.30;99.90;;;;;;2629735;47;20086;-77
2021/09/16 21:28:33;;;;;;;10.25;7.88;;;18.30;99.90;;;;;;2629386;47;20027;-78
2021/09/16 21:31:02;;;;;;;10.68;7.63;;;18.30;99.90;;;;;;2629402;47;20070;-80
2021/09/16 21:33:31;;;;;;;10.18;7.72;;;18.30;99.90;;;;;;2629846;54;20030;-78
2021/09/16 21:35:58;;;;;;;11.25;7.82;;;18.20;99.90;;;;;;2629332;47;20026;-77
2021/09/16 21:38:27;;;;;;;8.75;7.85;;;18.30;99.90;;;;;;2629332;47;20042;-78
2021/09/16 21:40:55;;;;;;;9.98;7.72;;;18.30;99.90;;;;;;2629702;54;20029;-78
2021/09/16 21:43:24;;;;;;;8.65;7.80;;;18.20;99.90;;;;;;2629546;47;20035;-78